createdAt,value
2023-03-22T00:00:44.154Z,3.75
2023-03-22T00:02:48.143Z,3.33
2023-03-22T00:04:50.756Z,3.35
2023-03-22T00:06:53.432Z,3.42
2023-03-22T00:08:56.412Z,3.20
2023-03-22T00:10:58.968Z,3.38
2023-03-22T00:13:02.019Z,3.20
2023-03-22T00:15:05.033Z,2.83
2023-03-22T00:17:07.629Z,2.88
2023-03-22T00:19:11.539Z,2.80
2023-03-22T00:21:15.760Z,3.45
2023-03-22T00:23:18.527Z,2.78
2023-03-22T00:25:21.081Z,3.00
2023-03-22T00:27:23.654Z,2.60
2023-03-22T00:29:26.225Z,3.08
2023-03-22T00:31:28.865Z,2.88
2023-03-22T00:33:33.420Z,3.13
2023-03-22T00:35:37.397Z,2.58
2023-03-22T00:37:40.236Z,2.65
2023-03-22T00:39:42.969Z,2.95
2023-03-22T00:41:45.568Z,2.75
2023-03-22T00:43:48.836Z,2.85
2023-03-22T00:45:51.423Z,3.47
2023-03-22T00:47:54.081Z,2.75
2023-03-22T00:49:56.753Z,2.78
2023-03-22T00:52:00.692Z,2.70
2023-03-22T00:54:06.081Z,3.67
2023-03-22T00:56:09.638Z,3.60
2023-03-22T00:58:15.280Z,3.33
2023-03-22T01:00:18.629Z,3.35
2023-03-22T01:02:21.219Z,3.50
2023-03-22T01:04:28.846Z,3.10
2023-03-22T01:06:31.751Z,3.35
2023-03-22T01:08:39.063Z,3.10
2023-03-22T01:10:43.337Z,3.63
2023-03-22T01:12:46.393Z,2.88
2023-03-22T01:14:48.992Z,3.47
2023-03-22T01:16:51.717Z,3.08
2023-03-22T01:18:54.378Z,3.50
2023-03-22T01:20:56.980Z,3.03
2023-03-22T01:22:59.722Z,3.17
2023-03-22T01:25:03.865Z,3.17
2023-03-22T01:27:07.151Z,3.28
2023-03-22T01:29:10.192Z,2.78
2023-03-22T01:31:12.867Z,3.05
2023-03-22T01:33:15.652Z,2.95
2023-03-22T01:35:18.344Z,3.20
2023-03-22T01:37:21.955Z,2.97
2023-03-22T01:39:24.568Z,2.90
2023-03-22T01:41:28.555Z,3.65
2023-03-22T01:43:31.160Z,2.70
2023-03-22T01:45:45.788Z,3.25
2023-03-22T01:47:54.999Z,3.33
2023-03-22T01:50:00.772Z,3.83
2023-03-22T01:52:10.547Z,3.38
2023-03-22T01:54:19.258Z,3.42
2023-03-22T01:56:24.611Z,3.30
2023-03-22T01:58:28.686Z,3.50
2023-03-22T02:00:31.938Z,3.70
2023-03-22T02:02:34.858Z,3.28
2023-03-22T02:04:39.353Z,3.80
2023-03-22T02:06:42.739Z,3.70
2023-03-22T02:08:45.434Z,3.60
2023-03-22T02:10:48.060Z,3.38
2023-03-22T02:13:05.293Z,3.35
2023-03-22T02:15:13.423Z,3.08
2023-03-22T02:17:27.606Z,3.40
2023-03-22T02:20:05.683Z,3.88
2023-03-22T02:22:25.884Z,3.17
2023-03-22T02:24:56.210Z,3.97
2023-03-22T02:27:21.850Z,3.20
2023-03-22T02:29:33.010Z,3.97
2023-03-22T02:31:59.312Z,3.50
2023-03-22T02:34:27.742Z,3.33
2023-03-22T02:36:42.829Z,3.63
2023-03-22T02:39:19.832Z,3.95
2023-03-22T02:41:31.967Z,3.70
2023-03-22T02:43:39.102Z,3.55
2023-03-22T02:45:47.971Z,3.70
2023-03-22T02:47:57.284Z,4.13
2023-03-22T02:50:07.044Z,3.47
2023-03-22T02:52:17.269Z,3.15
2023-03-22T02:54:26.289Z,3.08
2023-03-22T02:56:33.598Z,2.88
2023-03-22T02:58:40.202Z,3.65
2023-03-22T03:00:45.122Z,2.92
2023-03-22T03:02:51.771Z,2.75
2023-03-22T03:04:56.720Z,2.80
2023-03-22T03:07:03.828Z,2.75
2023-03-22T03:09:07.254Z,2.97
2023-03-22T03:11:11.697Z,3.03
2023-03-22T03:13:16.247Z,3.30
2023-03-22T03:15:21.176Z,3.45
2023-03-22T03:17:39.439Z,3.63
2023-03-22T03:19:51.243Z,3.35
2023-03-22T03:24:14.335Z,4.50
2023-03-22T03:26:25.314Z,4.32
2023-03-22T03:28:38.353Z,4.90
2023-03-22T03:30:48.339Z,4.47
2023-03-22T03:32:54.507Z,4.30
2023-03-22T03:35:03.478Z,3.40
2023-03-22T03:37:10.468Z,3.45
2023-03-22T03:39:15.993Z,3.35
2023-03-22T03:41:23.610Z,3.88
2023-03-22T03:43:26.865Z,3.80
2023-03-22T03:45:30.601Z,3.60
2023-03-22T03:47:33.452Z,3.60
2023-03-22T03:49:36.902Z,3.60
2023-03-22T03:51:48.637Z,3.60
2023-03-22T03:53:51.225Z,3.40
2023-03-22T03:55:53.797Z,3.00
2023-03-22T03:57:57.685Z,3.22
2023-03-22T04:00:00.348Z,3.40
2023-03-22T04:02:02.959Z,3.30
2023-03-22T04:04:05.630Z,3.10
2023-03-22T04:06:09.823Z,3.13
2023-03-22T04:08:12.392Z,3.20
2023-03-22T04:10:16.966Z,3.35
2023-03-22T04:12:19.548Z,3.20
2023-03-22T04:14:24.157Z,2.83
2023-03-22T04:16:26.784Z,3.20
2023-03-22T04:18:30.180Z,2.95
2023-03-22T04:20:32.764Z,3.20
2023-03-22T04:22:38.357Z,3.13
2023-03-22T04:24:41.189Z,3.13
2023-03-22T04:26:43.763Z,3.53
2023-03-22T04:28:46.346Z,3.45
2023-03-22T04:30:51.914Z,3.38
2023-03-22T04:32:54.584Z,3.42
2023-03-22T04:34:57.163Z,3.42
2023-03-22T04:37:02.444Z,3.45
2023-03-22T04:39:06.914Z,3.40
2023-03-22T04:41:09.567Z,3.50
2023-03-22T04:43:13.723Z,3.30
2023-03-22T04:45:16.588Z,3.15
2023-03-22T04:47:20.588Z,3.50
2023-03-22T04:49:23.376Z,3.67
2023-03-22T04:51:27.079Z,3.78
2023-03-22T04:53:29.820Z,4.07
2023-03-22T04:55:34.137Z,5.05
2023-03-22T04:57:36.899Z,4.80
2023-03-22T04:59:39.480Z,4.70
2023-03-22T05:01:42.645Z,3.85
2023-03-22T05:03:47.475Z,4.20
2023-03-22T05:05:54.666Z,3.72
2023-03-22T05:07:57.302Z,3.38
2023-03-22T05:09:59.906Z,3.80
2023-03-22T05:12:02.478Z,3.10
2023-03-22T05:14:05.471Z,3.60
2023-03-22T05:16:09.851Z,3.10
2023-03-22T05:18:14.341Z,2.90
2023-03-22T05:20:18.300Z,3.65
2023-03-22T05:22:22.453Z,3.15
2023-03-22T05:24:25.260Z,3.15
2023-03-22T05:26:28.438Z,3.28
2023-03-22T05:28:31.876Z,3.17
2023-03-22T05:30:34.731Z,3.15
2023-03-22T05:32:37.553Z,3.50
2023-03-22T05:34:42.803Z,3.35
2023-03-22T05:36:51.472Z,3.03
2023-03-22T05:38:54.060Z,2.85
2023-03-22T05:40:56.617Z,3.63
2023-03-22T05:42:59.229Z,3.70
2023-03-22T05:45:01.918Z,3.80
2023-03-22T05:47:06.608Z,3.45
2023-03-22T05:49:11.131Z,3.20
2023-03-22T05:51:17.737Z,3.33
2023-03-22T05:53:21.700Z,3.47
2023-03-22T05:55:24.591Z,3.50
2023-03-22T05:57:29.912Z,3.55
2023-03-22T05:59:32.610Z,4.38
2023-03-22T06:01:35.328Z,4.18
2023-03-22T06:03:38.397Z,3.95
2023-03-22T06:05:41.360Z,3.83
2023-03-22T06:07:44.330Z,4.68
2023-03-22T06:09:49.475Z,4.38
2023-03-22T06:11:52.187Z,4.32
2023-03-22T06:13:54.729Z,4.18
2023-03-22T06:16:00.395Z,4.47
2023-03-22T06:18:03.183Z,4.05
2023-03-22T06:20:09.871Z,4.38
2023-03-22T06:22:12.594Z,4.00
2023-03-22T06:24:15.299Z,3.83
2023-03-22T06:26:19.203Z,3.67
2023-03-22T06:28:21.776Z,3.95
2023-03-22T06:30:24.719Z,4.70
2023-03-22T06:32:27.618Z,4.40
2023-03-22T06:34:30.309Z,4.70
2023-03-22T06:36:33.119Z,5.20
2023-03-22T06:38:35.720Z,4.95
2023-03-22T06:40:38.633Z,4.53
2023-03-22T06:42:42.855Z,4.63
2023-03-22T06:44:45.456Z,4.75
2023-03-22T06:46:48.531Z,5.30
2023-03-22T06:48:51.112Z,5.55
2023-03-22T06:50:53.658Z,5.13
2023-03-22T06:52:56.397Z,5.13
2023-03-22T06:54:58.963Z,4.68
2023-03-22T06:57:01.571Z,3.92
2023-03-22T06:59:05.530Z,4.18
2023-03-22T07:01:08.215Z,3.78
2023-03-22T07:03:10.889Z,3.50
2023-03-22T07:05:13.496Z,4.13
2023-03-22T07:07:16.284Z,4.00
2023-03-22T07:09:19.062Z,3.50
2023-03-22T07:11:22.861Z,4.13
2023-03-22T07:13:25.618Z,3.85
2023-03-22T07:15:29.505Z,3.70
2023-03-22T07:17:32.131Z,3.70
2023-03-22T07:19:34.800Z,3.63
2023-03-22T07:21:37.394Z,3.40
2023-03-22T07:23:39.921Z,3.42
2023-03-22T07:25:42.495Z,3.60
2023-03-22T07:27:45.665Z,3.30
2023-03-22T07:29:48.331Z,4.13
2023-03-22T07:31:52.289Z,4.38
2023-03-22T07:33:54.892Z,3.90
2023-03-22T07:35:57.557Z,3.97
2023-03-22T07:38:00.870Z,3.25
2023-03-22T07:40:05.299Z,3.35
2023-03-22T07:42:07.957Z,3.60
2023-03-22T07:44:17.635Z,3.80
2023-03-22T07:46:20.705Z,3.47
2023-03-22T07:48:25.280Z,4.10
2023-03-22T07:50:27.865Z,3.90
2023-03-22T07:52:30.548Z,3.45
2023-03-22T07:54:34.491Z,3.40
2023-03-22T07:56:37.700Z,3.30
2023-03-22T07:58:40.340Z,3.30
2023-03-22T08:00:42.933Z,3.38
2023-03-22T08:02:46.207Z,3.17
2023-03-22T08:04:53.161Z,3.13
2023-03-22T08:06:58.697Z,3.00
2023-03-22T08:09:01.297Z,3.28
2023-03-22T08:11:04.187Z,3.15
2023-03-22T08:13:06.811Z,2.42
2023-03-22T08:15:10.869Z,2.53
2023-03-22T08:17:13.688Z,2.97
2023-03-22T08:19:16.294Z,2.65
2023-03-22T08:21:20.306Z,2.55
2023-03-22T08:23:38.515Z,2.80
2023-03-22T08:25:44.171Z,2.63
2023-03-22T08:27:47.135Z,2.25
2023-03-22T08:29:49.733Z,2.80
2023-03-22T08:31:52.822Z,2.95
2023-03-22T08:33:58.408Z,2.50
2023-03-22T08:36:08.082Z,2.38
2023-03-22T08:38:12.096Z,2.47
2023-03-22T08:40:15.182Z,2.60
2023-03-22T08:42:17.792Z,2.20
2023-03-22T08:44:20.371Z,2.10
2023-03-22T08:46:23.085Z,2.40
2023-03-22T08:48:28.993Z,2.20
2023-03-22T08:50:34.349Z,2.13
2023-03-22T08:52:37.034Z,1.88
2023-03-22T08:54:40.978Z,1.80
2023-03-22T08:56:43.531Z,2.00
2023-03-22T08:58:48.128Z,1.70
2023-03-22T09:00:51.226Z,1.60
2023-03-22T09:02:53.901Z,1.80
2023-03-22T09:04:56.493Z,2.10
2023-03-22T09:06:59.133Z,1.85
2023-03-22T09:09:01.899Z,1.70
2023-03-22T09:11:08.895Z,1.95
2023-03-22T09:13:13.350Z,1.95
2023-03-22T09:15:16.164Z,1.67
2023-03-22T09:17:21.243Z,1.95
2023-03-22T09:19:24.581Z,1.90
2023-03-22T09:21:27.171Z,1.80
2023-03-22T09:23:30.546Z,2.13
2023-03-22T09:25:33.201Z,2.05
2023-03-22T09:27:37.292Z,1.77
2023-03-22T09:29:39.903Z,1.77
2023-03-22T09:31:43.409Z,2.03
2023-03-22T09:33:46.255Z,1.85
2023-03-22T09:35:48.840Z,1.48
2023-03-22T09:37:53.267Z,1.27
2023-03-22T09:39:56.006Z,1.50
2023-03-22T09:42:01.961Z,1.80
2023-03-22T09:44:09.164Z,1.63
2023-03-22T09:46:15.865Z,1.67
2023-03-22T09:48:23.242Z,1.55
2023-03-22T09:50:28.854Z,1.50
2023-03-22T09:52:31.887Z,1.30
2023-03-22T09:54:36.009Z,1.00
2023-03-22T09:56:38.646Z,0.80
2023-03-22T09:58:47.195Z,2.05
2023-03-22T10:00:56.926Z,1.30
2023-03-22T10:03:06.261Z,1.17
2023-03-22T10:05:21.785Z,1.15
2023-03-22T10:07:30.162Z,1.23
2023-03-22T10:09:43.083Z,1.00
2023-03-22T10:11:47.959Z,1.30
2023-03-22T10:13:58.448Z,1.10
2023-03-22T10:16:04.473Z,1.40
2023-03-22T10:18:12.503Z,0.95
2023-03-22T10:20:29.678Z,0.82
2023-03-22T10:22:36.312Z,0.80
2023-03-22T10:24:42.671Z,1.05
2023-03-22T10:26:47.787Z,1.10
2023-03-22T10:28:59.369Z,1.40
2023-03-22T10:31:05.753Z,1.23
2023-03-22T10:33:14.888Z,1.33
2023-03-22T10:35:18.057Z,1.80
2023-03-22T10:37:24.821Z,1.50
2023-03-22T10:39:32.449Z,1.20
2023-03-22T10:41:35.591Z,1.00
2023-03-22T10:43:39.998Z,1.10
2023-03-22T10:45:44.108Z,1.30
2023-03-22T10:47:54.193Z,1.30
2023-03-22T10:49:58.334Z,0.90
2023-03-22T10:52:05.674Z,1.20
2023-03-22T10:54:14.409Z,0.93
2023-03-22T10:56:20.024Z,0.90
2023-03-22T10:58:27.123Z,0.93
2023-03-22T11:00:29.777Z,1.27
2023-03-22T11:02:33.645Z,1.48
2023-03-22T11:04:38.381Z,1.00
2023-03-22T11:06:49.855Z,1.00
2023-03-22T11:08:54.532Z,1.05
2023-03-22T11:11:00.265Z,1.00
2023-03-22T11:13:18.484Z,0.95
2023-03-22T11:15:27.889Z,1.13
2023-03-22T11:17:33.026Z,1.10
2023-03-22T11:19:39.156Z,1.17
2023-03-22T11:21:43.290Z,1.00
2023-03-22T11:23:55.009Z,1.10
2023-03-22T11:26:01.028Z,1.23
2023-03-22T11:28:10.961Z,1.13
2023-03-22T11:30:21.062Z,0.88
2023-03-22T11:32:28.869Z,0.93
2023-03-22T11:34:32.174Z,1.00
2023-03-22T11:36:45.296Z,1.10
2023-03-22T11:38:48.943Z,1.20
2023-03-22T11:40:56.584Z,0.90
2023-03-22T11:43:16.594Z,1.10
2023-03-22T11:45:25.167Z,1.13
2023-03-22T11:47:33.837Z,0.90
2023-03-22T11:49:41.544Z,1.10
2023-03-22T11:51:46.472Z,1.10
2023-03-22T11:53:49.906Z,1.10
2023-03-22T11:55:58.044Z,1.00
2023-03-22T11:58:00.614Z,0.95
2023-03-22T12:00:11.335Z,1.00
2023-03-22T12:02:21.070Z,1.10
2023-03-22T12:04:27.816Z,1.23
2023-03-22T12:06:34.437Z,1.10
2023-03-22T12:08:43.935Z,1.00
2023-03-22T12:10:52.597Z,0.93
2023-03-22T12:12:59.493Z,1.10
2023-03-22T12:15:05.840Z,0.85
2023-03-22T12:17:16.724Z,1.10
2023-03-22T12:19:29.468Z,1.07
2023-03-22T12:21:33.759Z,1.00
2023-03-22T12:23:36.909Z,0.82
2023-03-22T12:25:43.625Z,1.00
2023-03-22T12:27:49.286Z,0.90
2023-03-22T12:29:57.676Z,0.80
2023-03-22T12:32:07.121Z,1.00
2023-03-22T12:34:15.799Z,1.00
2023-03-22T12:36:21.693Z,0.80
2023-03-22T12:38:34.044Z,0.88
2023-03-22T12:40:40.635Z,0.90
2023-03-22T12:42:56.633Z,1.00
2023-03-22T12:45:06.013Z,0.80
2023-03-22T12:47:18.924Z,0.90
2023-03-22T12:49:28.140Z,0.65
2023-03-22T12:51:30.715Z,0.80
2023-03-22T12:53:42.280Z,1.00
2023-03-22T12:55:46.875Z,0.98
2023-03-22T12:57:54.389Z,0.88
2023-03-22T13:00:00.381Z,1.05
2023-03-22T13:02:12.723Z,0.80
2023-03-22T13:04:32.261Z,0.70
2023-03-22T13:06:56.758Z,0.90
2023-03-22T13:09:15.639Z,0.90
2023-03-22T13:11:25.232Z,1.00
2023-03-22T13:13:42.285Z,0.90
2023-03-22T13:16:00.690Z,0.88
2023-03-22T13:18:03.394Z,0.90
2023-03-22T13:20:31.178Z,0.98
2023-03-22T13:23:05.282Z,0.80
2023-03-22T13:25:17.088Z,0.90
2023-03-22T13:27:20.102Z,1.77
2023-03-22T13:29:26.396Z,1.23
2023-03-22T13:31:38.458Z,2.00
2023-03-22T13:33:44.739Z,1.60
2023-03-22T13:35:51.255Z,1.20
2023-03-22T13:37:54.831Z,1.00
2023-03-22T13:40:02.006Z,0.73
2023-03-22T13:42:10.334Z,1.00
2023-03-22T13:44:30.465Z,0.80
2023-03-22T13:46:50.630Z,0.85
2023-03-22T13:49:00.337Z,0.75
2023-03-22T13:51:12.015Z,0.85
2023-03-22T13:53:21.425Z,0.70
2023-03-22T13:55:41.528Z,1.02
2023-03-22T13:57:58.869Z,0.90
2023-03-22T14:00:14.802Z,1.00
2023-03-22T14:02:26.106Z,0.85
2023-03-22T14:04:34.914Z,1.00
2023-03-22T14:06:46.081Z,1.02
2023-03-22T14:08:52.475Z,0.88
2023-03-22T14:11:01.090Z,0.90
2023-03-22T14:13:07.219Z,0.77
2023-03-22T14:15:17.464Z,1.00
2023-03-22T14:17:31.188Z,0.77
2023-03-22T14:19:35.844Z,0.68
2023-03-22T14:21:40.785Z,0.88
